Date,TemperatureHighF,TemperatureAvgF,TemperatureLowF,DewpointHighF,DewpointAvgF,DewpointLowF,HumidityHigh,HumidityAvg,HumidityLow,PressureMaxIn,PressureMinIn,WindSpeedMaxMPH,WindSpeedAvgMPH,GustSpeedMaxMPH,PrecipitationSumIn
2013-1-1,36,31,21,28,20,9,79,65,52,29.93,29.74,4,1,10,0.00
2013-1-2,31,20,13,15,9,3,76,63,51,30.10,29.91,4,1,8,0.00
2013-1-3,26,14,4,13,2,-4,80,58,32,30.13,30.00,3,0,7,0.00
2013-1-4,38,30,15,24,21,11,87,69,53,29.99,29.83,6,1,8,0.03
2013-1-5,42,31,23,25,22,19,85,69,45,30.26,29.86,3,0,11,0.09
2013-1-6,43,32,23,30,26,19,93,80,58,30.23,29.93,4,0,7,0.09
2013-1-7,40,32,22,30,24,19,92,74,45,30.41,29.97,3,0,6,0.02
2013-1-8,46,36,21,30,28,19,95,74,52,30.38,30.27,4,1,9,0.07
2013-1-9,44,35,23,37,30,21,93,81,61,31.01,30.00,6,1,7,0.00
2013-1-10,47,40,33,31,25,22,67,54,39,30.51,30.04,6,1,11,0.00
2013-1-11,40,34,26,35,28,23,96,82,68,30.50,30.20,0,0,3,0.16
2013-1-12,43,40,36,43,39,35,98,97,96,30.22,30.10,0,0,1,0.03
2013-1-13,51,46,40,50,45,39,99,98,96,30.14,29.98,7,0,8,0.01
2013-1-14,61,51,41,53,44,31,98,79,43,30.23,29.85,7,1,10,0.01
2013-1-15,41,37,32,34,29,27,92,74,58,30.29,30.18,1,0,4,0.01
2013-1-16,34,32,31,32,30,26,97,93,74,30.23,29.78,1,0,3,0.08
2013-1-17,41,35,30,34,29,18,97,81,58,30.06,29.82,2,0,8,0.06
2013-1-18,30,22,16,18,5,-4,74,48,31,30.44,30.02,6,1,8,0.00
2013-1-19,47,36,18,33,24,8,79,62,45,30.38,29.88,6,2,14,0.00
2013-1-20,53,42,29,35,27,10,76,57,35,29.90,29.53,15,2,17,0.00
2013-1-21,29,25,21,21,12,6,91,59,41,30.08,29.77,3,0,8,0.00
2013-1-22,24,20,12,22,8,-2,92,63,35,30.06,29.73,5,1,10,0.00
2013-1-23,16,11,6,3,-4,-9,69,50,35,30.13,30.05,6,1,10,0.00
2013-1-24,19,10,3,-5,-7,-9,62,46,29,30.21,30.05,7,1,11,0.00
2013-1-25,24,16,8,13,-4,-9,86,43,26,30.29,30.04,4,1,8,0.00
2013-1-26,25,17,11,13,5,-6,89,62,34,30.22,29.98,4,1,8,0.00
2013-1-27,30,21,12,6,3,0,65,47,31,30.45,30.22,8,1,9,0.00
2013-1-28,31,24,17,27,13,3,95,65,34,30.44,29.99,4,0,6,0.00
2013-1-29,33,30,27,32,29,25,97,94,91,30.18,29.99,0,0,3,0.10
2013-1-30,60,49,32,57,48,32,98,95,89,30.14,29.46,9,2,17,0.19
2013-1-31,60,48,31,58,39,16,96,74,45,29.58,28.97,17,3,24,0.30
2013-2-1,33,28,22,19,11,3,62,48,33,30.07,29.57,6,2,18,0.00
2013-2-2,30,24,17,15,8,3,66,52,40,30.24,30.03,3,1,8,0.00
2013-2-3,28,24,20,23,20,13,91,84,59,30.04,29.71,3,0,5,0.00
2013-2-4,29,24,19,21,13,7,91,65,40,29.94,29.70,6,1,13,0.00
2013-2-5,27,23,21,23,14,10,92,69,61,30.01,29.92,2,0,2,0.00
2013-2-6,39,29,25,27,17,6,93,62,41,30.27,29.91,5,0,8,0.02
2013-2-7,31,24,16,15,7,3,74,50,32,30.51,30.28,2,0,7,0.00
2013-2-8,32,29,19,31,26,15,96,88,66,30.47,29.50,2,0,6,0.00
2013-2-9,22,19,14,18,15,7,93,85,73,30.17,29.48,4,0,9,0.00
2013-2-10,36,19,8,24,11,3,89,71,37,30.38,30.17,3,0,4,0.01
2013-2-11,44,32,13,44,31,11,98,93,82,30.34,29.59,5,0,10,0.38
2013-2-12,44,38,29,40,30,26,97,74,54,29.87,29.61,6,1,9,0.04
2013-2-13,43,33,26,28,25,22,89,73,49,29.86,29.68,4,0,5,0.00
2013-2-14,43,35,28,29,24,20,93,66,41,29.98,29.70,4,0,7,0.00
2013-2-15,49,37,27,36,32,23,96,82,59,30.00,29.90,5,1,11,0.00
2013-2-16,36,33,29,33,29,20,97,85,60,29.93,29.66,2,0,6,0.05
2013-2-17,31,22,17,24,15,1,91,75,41,29.67,29.37,9,2,16,0.00
2013-2-18,32,23,14,5,2,-1,56,41,28,30.15,29.67,6,2,12,0.01
2013-2-19,46,33,24,42,20,2,97,60,39,30.16,29.57,7,1,14,0.57
2013-2-20,40,32,25,39,21,11,97,65,44,29.77,29.52,9,2,13,0.01
2013-2-21,34,27,24,17,14,12,70,59,44,30.16,29.76,8,2,14,0.00
2013-2-22,38,30,24,26,22,16,84,71,57,30.36,30.16,5,0,6,0.00
2013-2-23,38,34,30,32,29,25,96,84,71,30.32,29.88,3,0,4,0.22
2013-2-24,37,34,31,36,33,30,97,96,96,29.88,29.66,2,0,7,0.71
2013-2-25,39,34,30,32,30,28,97,89,70,30.23,29.87,2,0,5,0.22
2013-2-26,44,35,27,34,29,26,98,81,53,30.32,30.13,2,0,6,0.06
2013-2-27,41,39,35,40,38,31,98,96,86,30.13,29.55,4,1,9,1.19
2013-2-28,44,37,33,39,35,32,98,94,81,29.63,29.50,1,0,3,0.01
2013-3-1,42,37,32,34,31,28,98,80,62,29.66,29.51,4,0,9,0.00
2013-3-2,41,37,32,31,28,26,80,70,58,29.66,29.60,3,0,6,0.00
2013-3-3,42,35,31,31,28,25,93,75,61,29.63,29.54,3,0,5,0.00
2013-3-4,40,34,29,29,24,21,88,67,53,29.72,29.57,5,2,14,0.00
2013-3-5,44,36,31,33,28,23,92,73,58,30.04,29.72,4,0,9,0.00
2013-3-6,39,36,32,36,33,30,96,90,73,30.07,30.00,4,1,10,0.10
2013-3-7,36,32,30,32,31,29,97,95,83,30.01,29.94,7,1,10,0.00
2013-3-8,34,31,29,32,30,28,97,95,86,30.12,29.90,3,0,7,0.00
2013-3-9,41,33,27,33,29,24,96,86,72,30.33,30.11,3,0,7,0.30
2013-3-10,42,34,26,33,30,25,97,87,68,30.39,30.29,2,0,5,0.38
2013-3-11,50,41,34,41,36,32,96,86,67,30.32,30.14,4,1,10,0.12
2013-3-12,54,46,37,53,44,36,98,95,83,30.15,29.72,4,0,11,0.53
2013-3-13,49,42,30,48,32,21,98,72,38,29.77,29.68,4,1,8,0.01
2013-3-14,34,30,23,26,16,6,85,58,42,29.82,29.70,6,1,13,0.00
2013-3-15,40,30,20,28,15,6,79,55,27,29.86,29.63,6,1,9,0.00
2013-3-16,39,34,28,28,17,4,82,53,27,29.85,29.67,4,0,6,0.00
2013-3-17,38,30,25,21,13,3,77,51,27,30.29,29.85,5,1,9,0.00
2013-3-18,38,28,17,26,11,2,89,50,28,30.44,30.22,4,0,7,0.00
2013-3-19,37,33,29,36,31,26,96,95,88,30.22,29.57,3,1,9,0.51
2013-3-20,38,31,24,28,22,18,94,72,46,29.81,29.68,6,1,12,0.11
2013-3-21,36,31,24,29,24,18,93,77,51,29.81,29.59,3,0,6,0.15
2013-3-22,40,32,27,28,21,15,93,63,41,29.74,29.59,4,1,10,0.12
2013-3-23,42,35,28,24,20,17,77,56,37,29.78,29.63,6,2,14,0.08
2013-3-24,46,37,31,28,23,19,80,59,39,29.81,29.71,4,1,7,0.00
2013-3-25,43,36,31,35,31,26,87,81,67,29.75,29.49,6,1,7,0.00
2013-3-26,47,39,32,32,27,21,94,67,37,29.76,29.50,4,0,9,0.05
2013-3-27,52,42,29,30,25,22,77,54,33,29.84,29.73,7,1,7,0.00
2013-3-28,46,41,36,35,33,29,92,75,52,30.00,29.84,2,0,6,0.01
2013-3-29,56,46,35,36,31,26,84,60,35,30.03,29.94,3,0,8,0.00
2013-3-30,55,45,32,33,25,15,79,49,21,30.08,29.99,5,1,9,0.00
2013-3-31,58,43,27,42,28,22,92,58,26,30.11,29.72,6,1,13,0.06
2013-4-1,60,46,34,46,38,13,97,75,39,29.78,29.49,5,2,11,0.35
2013-4-2,40,34,28,19,15,9,64,45,29,29.94,29.78,7,2,14,0.01
2013-4-3,44,35,30,18,15,10,56,45,26,30.14,29.93,7,2,14,0.00
2013-4-4,55,40,29,28,18,11,69,45,18,30.29,30.05,5,1,8,0.00
2013-4-5,59,46,37,32,28,19,76,52,23,30.05,29.61,4,1,9,0.00
2013-4-6,45,37,29,26,13,4,65,39,18,30.32,29.86,6,1,13,0.00
2013-4-7,51,44,26,41,32,19,88,63,37,30.31,30.00,10,2,17,0.00
2013-4-8,64,52,42,44,41,34,96,68,33,30.08,29.94,4,1,8,0.00
2013-4-9,72,57,47,53,44,39,93,65,35,30.07,29.84,8,1,11,0.00
2013-4-10,64,52,44,49,46,42,96,79,56,30.00,29.83,3,0,6,0.14
2013-4-11,52,47,43,46,42,34,97,83,62,30.12,29.80,1,0,5,0.03
2013-4-12,43,39,37,40,36,31,96,90,71,30.14,29.75,3,0,6,0.47
2013-4-13,52,43,36,41,37,34,97,82,52,29.92,29.71,3,0,7,0.04
2013-4-14,53,44,36,40,33,25,96,67,38,30.20,29.91,5,1,10,0.00
2013-4-15,57,46,33,38,33,28,87,63,37,30.38,30.20,4,0,7,0.00
2013-4-16,60,50,35,49,41,34,96,75,50,30.39,30.07,7,2,19,0.00
2013-4-17,66,58,45,52,40,29,86,56,26,30.31,30.05,4,1,9,0.00
2013-4-18,62,50,36,44,35,26,94,61,31,30.40,30.13,5,1,11,0.00
2013-4-19,72,61,52,62,58,44,97,89,69,30.13,29.66,9,2,14,0.01
2013-4-20,63,54,44,62,42,26,96,67,39,30.19,29.60,7,1,16,0.50
2013-4-21,52,43,32,30,24,19,78,49,28,30.66,30.19,3,1,7,0.00
2013-4-22,53,42,30,35,30,23,91,66,34,30.73,30.56,5,1,7,0.00
2013-4-23,42,41,38,41,38,31,97,91,76,30.56,30.07,3,0,6,0.08
2013-4-24,72,53,42,52,45,41,97,79,39,30.08,29.80,5,1,12,0.01
2013-4-25,63,54,46,52,38,27,95,59,26,30.24,29.83,6,1,10,0.05
2013-4-26,63,51,41,42,36,26,90,58,36,30.40,30.24,3,0,7,0.00
2013-4-27,64,49,34,43,36,31,97,64,33,30.40,30.28,5,0,7,0.00
2013-4-28,68,53,36,42,34,28,92,55,28,30.32,30.21,5,1,13,0.00
2013-4-29,67,55,44,48,37,13,95,57,16,30.26,30.19,4,1,10,0.00
2013-4-30,70,54,38,41,31,18,89,48,16,30.35,30.24,3,0,6,0.00
2013-5-1,70,53,35,40,34,31,86,54,26,30.45,30.34,2,0,5,0.00
2013-5-2,76,55,40,47,40,36,94,63,24,30.46,30.32,3,0,5,0.00
2013-5-3,57,48,40,44,41,37,94,77,59,30.49,30.36,2,0,7,0.00
2013-5-4,59,47,36,45,37,30,97,72,37,30.35,30.28,3,0,7,0.00
2013-5-5,62,47,34,45,38,32,96,74,46,30.31,30.23,2,0,6,0.00
2013-5-6,70,54,38,51,45,35,96,74,42,30.28,30.12,4,0,6,0.00
2013-5-7,76,61,42,58,51,41,97,74,49,30.16,30.07,4,0,8,0.00
2013-5-8,74,63,52,63,57,50,97,82,58,30.17,30.02,5,0,10,0.13
2013-5-9,66,60,57,62,59,56,98,95,83,30.02,29.86,0,0,3,0.63
2013-5-10,79,65,52,62,56,52,98,75,41,29.94,29.87,2,0,5,0.00
2013-5-11,70,62,57,62,58,54,97,90,72,29.91,29.68,4,0,9,0.08
2013-5-12,70,60,48,61,52,34,98,78,45,29.80,29.55,3,0,7,0.02
2013-5-13,59,50,39,38,32,27,84,53,33,30.01,29.80,5,0,8,0.00
2013-5-14,58,48,37,37,33,27,86,57,34,30.03,29.96,2,0,6,0.00
2013-5-15,64,52,38,52,41,32,92,68,33,30.04,29.66,4,0,12,0.01
2013-5-16,80,66,50,52,45,35,97,55,20,29.77,29.62,4,0,9,0.00
2013-5-17,68,59,49,46,42,37,82,57,34,30.20,29.77,3,0,7,0.00
2013-5-18,71,58,45,49,45,37,95,65,30,30.29,30.20,1,0,4,0.00
2013-5-19,71,59,48,54,50,45,96,73,46,30.32,30.21,2,0,8,0.10
2013-5-20,80,67,55,67,61,54,98,83,56,30.20,29.89,2,0,7,0.03
2013-5-21,85,63,51,70,59,50,97,87,55,29.97,29.83,4,0,6,0.14
2013-5-22,69,58,50,65,56,50,98,92,78,30.01,29.86,1,0,8,0.02
2013-5-23,75,66,56,68,64,54,98,91,75,29.90,29.80,6,0,8,0.10
2013-5-24,68,62,50,66,61,49,98,97,90,29.80,29.64,2,0,10,0.72
2013-5-25,51,47,41,51,47,40,98,97,96,29.78,29.68,2,0,9,0.36
2013-5-26,58,48,39,44,40,38,97,77,50,30.09,29.71,4,0,11,0.01
2013-5-27,70,57,41,46,41,33,94,60,27,30.15,30.05,3,0,8,0.00
2013-5-28,75,59,42,55,46,40,97,66,29,30.21,30.14,3,0,6,0.00
2013-5-29,72,63,58,67,61,55,97,92,82,30.17,29.97,1,0,5,1.11
2013-5-30,86,74,64,72,67,63,98,82,56,30.07,29.98,2,0,5,0.01
2013-5-31,92,79,68,73,67,61,95,69,41,30.07,29.92,2,0,5,0.00
2013-6-1,90,78,65,70,65,62,91,67,42,29.96,29.84,3,0,9,0.00
2013-6-2,86,74,64,71,66,62,93,76,53,29.87,29.73,4,1,13,0.00
2013-6-3,73,66,60,69,64,57,97,93,84,29.83,29.74,2,0,6,0.36
2013-6-4,70,61,50,56,47,43,88,63,42,30.07,29.80,2,0,6,0.01
2013-6-5,73,61,48,52,48,43,93,65,36,30.17,30.07,2,0,5,0.00
2013-6-6,74,63,52,57,51,44,93,69,38,30.17,30.08,1,0,6,0.00
2013-6-7,59,56,54,58,55,53,98,96,89,30.09,29.77,0,0,4,2.71
2013-6-8,75,62,54,67,58,53,98,89,69,29.98,29.58,3,0,6,0.85
2013-6-9,79,67,56,61,58,54,97,74,44,30.14,29.98,2,0,4,0.00
2013-6-10,70,62,55,63,58,53,97,90,68,30.17,29.99,0,0,2,0.60
2013-6-11,65,59,55,62,58,54,98,96,87,29.99,29.54,1,0,4,1.34
2013-6-12,69,62,56,59,56,54,98,82,61,29.79,29.54,4,0,7,0.00
2013-6-13,64,56,51,60,54,50,98,93,81,29.80,29.63,1,0,3,0.52
2013-6-14,68,58,52,61,54,50,98,87,64,29.74,29.59,3,0,6,1.16
2013-6-15,77,65,53,56,51,42,96,65,31,29.92,29.75,2,0,5,0.00
2013-6-16,75,66,54,63,56,47,93,72,46,29.92,29.70,2,0,6,0.00
2013-6-17,84,70,58,66,61,56,97,77,41,29.89,29.75,5,0,6,0.34
2013-6-18,79,63,58,68,60,57,98,91,65,29.93,29.85,1,0,3,0.86
2013-6-19,73,63,55,61,55,49,98,78,46,30.12,29.86,2,0,4,0.02
2013-6-20,78,65,50,59,53,47,98,70,35,30.24,30.12,1,0,4,0.00
2013-6-21,81,69,57,69,61,54,94,77,55,30.24,30.17,2,0,4,0.00
2013-6-22,82,70,59,66,59,55,88,71,46,30.20,30.10,3,0,6,0.00
2013-6-23,88,75,63,73,66,58,91,75,55,30.15,29.99,2,0,6,0.00
2013-6-24,92,79,68,74,70,66,96,77,52,30.01,29.85,3,0,4,0.28
2013-6-25,89,78,67,73,69,66,96,76,52,29.90,29.71,2,0,5,0.01
2013-6-26,86,76,68,74,70,66,95,81,57,29.82,29.70,3,0,5,0.00
2013-6-27,70,66,63,67,64,62,97,95,89,29.83,29.73,0,0,3,0.00
2013-6-28,78,70,63,73,68,62,99,95,81,29.73,29.48,7,0,9,0.46
2013-6-29,80,73,69,72,69,68,98,90,72,29.70,29.49,3,0,9,0.16
2013-6-30,80,73,69,74,70,68,96,90,78,29.92,29.70,3,0,8,0.12
2013-7-1,81,73,70,76,72,69,98,95,81,30.06,29.91,5,0,6,0.06
2013-7-2,81,74,66,75,71,64,98,91,77,30.17,30.06,1,0,5,0.00
2013-7-3,87,75,63,75,70,62,98,85,65,30.19,30.12,2,0,5,0.00
2013-7-4,90,81,72,77,74,71,96,81,57,30.18,30.08,2,0,5,0.00
2013-7-5,92,82,75,78,74,71,89,76,54,30.14,30.01,2,0,5,0.00
2013-7-6,89,77,73,75,72,70,90,86,57,30.05,29.95,1,0,4,0.00
2013-7-7,92,78,71,78,73,68,96,84,56,30.00,29.88,2,0,2,0.02
2013-7-8,86,76,67,77,72,65,98,88,69,30.03,29.88,0,0,3,0.08
2013-7-9,74,68,65,71,67,64,98,95,87,30.08,30.01,0,0,2,0.01
2013-7-10,83,74,68,75,71,66,98,91,75,30.04,29.78,5,0,9,0.00
2013-7-11,78,74,70,75,72,68,98,94,84,29.89,29.76,0,0,2,0.15
2013-7-12,72,68,65,69,64,61,97,86,75,30.16,29.89,1,0,7,0.00
2013-7-13,75,69,65,72,68,63,98,95,88,30.28,30.16,0,0,2,0.15
2013-7-14,88,78,71,77,73,70,99,87,59,30.28,30.17,1,0,3,0.08
2013-7-15,91,79,71,76,73,71,99,83,54,30.17,30.07,1,0,3,0.00
2013-7-16,92,80,70,75,71,67,96,76,46,30.14,30.07,1,0,4,0.00
2013-7-17,93,80,69,76,71,67,97,77,48,30.15,29.99,1,0,5,0.00
2013-7-18,94,83,75,77,73,68,89,74,43,29.99,29.91,1,0,5,0.00
2013-7-19,94,84,75,78,75,73,95,76,52,29.92,29.70,3,0,6,0.00
2013-7-20,93,81,74,78,75,72,95,83,56,29.78,29.62,1,0,5,0.01
2013-7-21,84,76,69,72,68,64,94,77,58,29.96,29.78,1,0,4,0.00
2013-7-22,86,74,66,72,68,65,97,83,51,29.98,29.85,1,0,4,0.00
2013-7-23,83,73,70,77,72,68,98,95,78,29.85,29.51,1,0,5,1.30
2013-7-24,84,75,69,75,70,58,99,84,66,29.91,29.56,2,0,6,0.00
2013-7-25,69,61,59,59,56,51,98,85,68,30.06,29.91,3,0,8,0.81
2013-7-26,69,63,59,67,63,59,98,97,94,30.02,29.91,2,0,7,0.53
2013-7-27,82,70,61,70,65,61,99,85,53,30.04,29.98,2,0,6,0.00
2013-7-28,81,72,67,74,69,66,98,92,75,29.99,29.93,0,0,4,0.01
2013-7-29,79,72,65,74,70,64,98,92,78,30.01,29.94,1,0,4,0.43
2013-7-30,80,70,61,68,62,57,96,76,47,30.07,30.00,2,0,4,0.01
2013-7-31,81,70,61,68,62,58,93,77,50,30.11,30.02,2,0,4,0.00
2013-8-1,81,70,61,68,63,60,97,81,53,30.03,29.86,2,0,7,0.01
2013-8-2,81,70,64,70,64,60,98,84,55,29.86,29.78,2,0,4,0.18
2013-8-3,75,69,65,66,64,61,96,84,69,29.85,29.76,1,0,4,0.00
2013-8-4,78,68,60,62,58,55,90,73,46,29.87,29.75,1,0,5,0.00
2013-8-5,74,64,53,58,51,42,91,68,34,30.03,29.86,3,0,6,0.00
2013-8-6,78,63,48,59,53,46,96,72,39,30.13,30.02,2,0,3,0.00
2013-8-7,78,66,54,63,55,49,98,73,41,30.17,30.10,1,0,6,0.00
2013-8-8,78,70,63,72,66,56,97,88,79,30.11,29.99,2,0,6,0.15
2013-8-9,74,72,71,73,71,69,98,96,94,30.01,29.74,3,0,7,1.47
2013-8-10,81,72,62,73,64,56,99,78,51,29.98,29.77,1,0,4,0.09
2013-8-11,77,66,54,62,57,52,95,73,45,30.06,29.98,1,0,4,0.01
2013-8-12,80,69,59,65,61,56,96,78,46,30.01,29.90,3,0,4,0.01
2013-8-13,71,66,63,68,64,61,97,93,80,29.91,29.67,0,0,3,0.01
2013-8-14,72,66,59,64,56,52,98,73,53,29.94,29.65,2,0,8,0.01
2013-8-15,74,64,55,58,54,50,92,72,45,30.10,29.94,2,0,4,0.00
2013-8-16,76,66,55,62,56,53,93,74,48,30.17,30.09,2,0,3,0.00
2013-8-17,77,68,58,64,59,55,91,75,52,30.25,30.17,2,0,5,0.00
2013-8-18,77,66,57,67,61,56,97,85,53,30.25,30.07,2,0,3,0.00
2013-8-19,79,69,60,66,61,57,94,77,48,30.07,29.93,2,0,3,0.00
2013-8-20,83,73,64,68,64,60,92,75,48,30.07,29.95,3,0,3,0.00
2013-8-21,84,73,63,69,65,60,94,76,51,30.12,30.00,2,0,3,0.00
2013-8-22,83,74,64,73,68,62,95,84,68,30.02,29.80,1,0,4,0.00
2013-8-23,77,70,61,69,63,54,95,79,57,30.09,29.79,3,0,5,0.00
2013-8-24,73,63,53,57,51,43,88,67,36,30.32,30.09,3,0,6,0.00
2013-8-25,79,66,53,60,55,49,96,71,39,30.34,30.17,1,0,3,0.00
2013-8-26,78,70,62,68,63,56,87,79,61,30.18,29.86,2,0,5,0.00
2013-8-27,77,70,63,72,67,62,98,92,75,29.87,29.81,0,0,3,0.12
2013-8-28,81,70,60,71,65,59,99,85,56,29.94,29.83,1,0,3,0.00
2013-8-29,65,63,60,64,62,58,98,96,93,30.04,29.92,1,0,4,0.00
2013-8-30,78,68,60,69,64,58,96,88,70,30.01,29.81,1,0,4,0.00
2013-8-31,80,73,67,74,70,66,98,93,81,29.82,29.77,0,0,4,0.01
2013-9-1,76,72,69,76,71,68,99,98,96,29.89,29.78,1,0,6,0.05
2013-9-2,78,73,69,75,72,68,99,96,84,29.85,29.69,2,0,7,0.02
2013-9-3,80,72,63,72,69,61,99,91,69,29.80,29.66,0,0,4,0.02
2013-9-4,76,67,59,63,59,57,94,79,53,29.90,29.78,1,0,6,0.01
2013-9-5,66,61,52,63,58,50,97,91,80,30.12,29.85,7,0,7,0.01
2013-9-6,65,55,46,52,46,40,96,75,42,30.23,30.08,2,0,4,0.01
2013-9-7,75,62,50,59,52,45,91,71,46,30.08,29.84,1,0,3,0.01
2013-9-8,73,64,52,64,54,41,90,71,42,30.07,29.73,3,0,7,0.01
2013-9-9,67,56,43,53,46,40,94,73,47,30.22,30.06,2,0,4,0.01
2013-9-10,74,66,54,70,62,50,95,88,83,30.15,30.02,3,0,7,0.00
2013-9-11,91,78,69,78,72,67,98,84,56,30.06,29.92,2,0,4,0.01
2013-9-12,84,75,69,74,71,68,96,87,70,29.95,29.66,2,0,10,0.01
2013-9-13,75,68,60,70,66,55,98,91,75,29.73,29.55,0,0,5,0.01
2013-9-14,65,60,52,57,54,50,95,83,69,30.04,29.73,2,0,4,0.01
2013-9-15,68,58,49,57,52,48,96,80,56,30.15,30.04,1,0,3,0.00
2013-9-16,64,57,49,58,52,40,95,84,67,30.22,30.00,2,0,4,0.01
2013-9-17,58,50,41,47,41,36,93,73,51,30.40,30.22,4,0,8,0.00
2013-9-18,70,54,42,52,46,41,97,76,41,30.31,30.13,2,0,3,0.01
2013-9-19,75,60,48,60,52,46,95,77,46,30.13,30.02,1,0,3,0.00
2013-9-20,76,62,48,60,54,46,98,78,44,30.07,29.98,0,0,5,0.01
2013-9-21,74,65,56,66,61,55,98,87,65,30.01,29.71,6,0,11,0.00
2013-9-22,70,63,52,67,59,47,97,85,61,29.80,29.60,3,0,8,0.01
2013-9-23,61,52,44,48,44,41,93,76,56,29.98,29.80,2,0,5,0.00
2013-9-24,64,52,42,50,44,39,91,74,48,29.98,29.80,2,0,5,0.01
2013-9-25,48,47,45,45,44,43,93,92,91,29.90,29.89,0,0,0,0.00
2013-9-26,62,56,0,53,49,-100,93,80,63,30.10,0.00,2,-5,4,0.01
2013-9-27,64,56,47,56,51,45,94,84,66,30.24,30.09,1,0,5,0.00
2013-9-28,69,55,46,57,50,45,98,85,61,30.31,30.23,1,0,4,0.01
2013-9-29,64,52,43,55,48,42,98,86,59,30.25,30.10,1,0,4,0.00
2013-9-30,64,55,46,54,50,44,97,84,49,30.10,29.94,3,0,4,0.00
2013-10-1,73,58,44,57,51,43,98,81,47,29.95,29.83,2,0,4,0.01
2013-10-2,77,66,54,62,58,52,96,76,59,29.93,29.81,2,0,5,0.00
2013-10-3,76,63,55,57,53,46,88,71,38,30.07,29.93,1,0,4,0.01
2013-10-4,62,57,50,59,54,47,98,90,70,30.07,30.01,0,0,2,0.00
2013-10-5,66,60,56,62,58,55,99,93,81,30.10,30.03,0,0,6,0.00
2013-10-6,59,57,56,58,56,55,98,97,94,30.19,30.09,0,0,0,0.01
2013-10-7,75,66,56,70,64,56,99,94,83,30.10,29.81,4,1,14,0.00
2013-10-8,64,56,46,57,48,42,90,76,49,30.34,29.89,1,0,5,0.01
2013-10-9,59,50,42,49,44,41,96,84,60,30.43,30.34,2,0,6,0.00
2013-10-10,62,52,44,55,50,43,98,91,77,30.34,30.15,1,0,4,0.00
2013-10-11,66,57,50,58,52,47,97,86,63,30.15,30.08,2,0,3,0.01
2013-10-12,61,54,49,57,52,48,98,93,84,30.36,30.12,1,0,6,0.00
2013-10-13,60,51,40,51,47,38,98,86,65,30.42,30.33,2,0,4,0.00
2013-10-14,63,47,33,48,41,32,98,83,46,30.39,30.23,1,0,4,0.01
2013-10-15,66,55,46,55,50,44,98,84,64,30.25,30.16,2,0,3,0.00
2013-10-16,61,53,46,57,52,45,98,94,85,30.16,29.89,1,0,3,0.00
2013-10-17,69,60,53,62,57,52,99,91,73,29.90,29.71,2,0,6,0.01
2013-10-18,68,60,48,62,52,43,98,78,49,29.89,29.60,4,0,8,0.00
2013-10-19,64,55,46,49,44,40,87,69,45,29.96,29.74,5,0,8,0.00
2013-10-20,62,53,41,51,41,33,95,68,35,30.00,29.68,3,0,7,0.00
2013-10-21,67,52,40,45,40,35,86,67,39,30.10,29.98,3,0,6,0.00
2013-10-22,69,53,40,53,46,38,98,78,46,29.98,29.69,6,0,10,0.01
2013-10-23,51,44,37,40,36,34,92,74,53,29.79,29.57,1,0,2,0.00
2013-10-24,53,44,36,37,32,25,90,64,37,29.88,29.62,2,0,7,0.00
2013-10-25,48,40,33,35,30,28,83,68,46,30.15,29.88,4,0,6,0.00
2013-10-26,55,44,30,38,32,27,92,65,35,30.15,29.86,7,1,11,0.00
2013-10-27,55,46,37,41,36,30,95,68,44,30.05,29.81,4,0,7,0.00
2013-10-28,59,45,32,36,32,25,89,64,39,30.33,30.05,4,0,7,0.00
2013-10-29,50,38,29,30,26,22,91,65,37,30.42,30.33,2,0,5,0.00
2013-10-30,52,40,29,45,37,27,96,90,73,30.36,30.18,2,0,3,0.01
2013-10-31,62,49,32,60,47,31,98,93,83,30.23,29.79,3,1,13,0.01
2013-11-1,70,64,58,64,59,54,97,85,72,29.79,29.46,7,2,19,0.01
2013-11-2,66,55,47,54,47,40,96,77,41,29.70,29.57,2,0,4,0.00
2013-11-3,52,42,32,47,33,17,94,73,44,30.39,29.69,2,0,8,0.00
2013-11-4,42,32,24,24,21,18,87,64,42,30.69,30.39,2,0,5,0.24
2013-11-5,49,35,24,32,27,21,90,74,47,30.70,30.50,3,0,5,0.30
2013-11-6,60,49,36,52,42,32,93,80,54,30.51,30.03,3,1,11,0.01
2013-11-7,66,53,39,59,51,36,97,91,72,30.03,29.66,8,1,11,0.01
2013-11-8,49,38,30,37,29,23,92,71,48,30.09,29.80,3,1,10,0.01
2013-11-9,44,36,28,31,26,22,86,68,43,30.20,30.03,4,0,10,0.00
2013-11-10,53,45,37,44,38,30,96,76,54,30.02,29.72,4,1,8,0.00
2013-11-11,51,45,38,37,30,26,70,56,38,30.09,29.85,5,1,11,0.00
2013-11-12,49,36,28,40,28,16,94,72,56,30.17,29.87,3,0,14,0.00
2013-11-13,37,29,24,18,16,14,74,60,41,30.26,30.17,5,0,7,0.00
2013-11-14,50,37,26,27,22,16,73,56,34,30.17,30.04,5,1,9,0.01
2013-11-15,60,44,29,37,26,18,86,54,25,30.19,30.10,5,1,9,0.00
2013-11-16,60,45,33,38,31,26,92,63,32,30.30,30.18,2,0,5,0.00
2013-11-17,60,48,32,58,45,30,98,90,70,30.30,29.82,1,0,6,0.00
2013-11-18,65,58,45,62,50,34,98,77,45,29.82,29.53,4,1,15,0.00
2013-11-19,47,41,31,34,24,17,62,52,41,30.26,29.64,5,1,11,0.00
2013-11-20,41,31,24,18,16,12,76,56,32,30.61,30.27,3,0,8,0.00
2013-11-21,47,33,22,33,22,17,84,67,39,30.62,30.37,3,0,5,0.00
2013-11-22,49,44,40,48,42,33,98,92,75,30.37,29.81,2,0,3,0.00
2013-11-23,48,40,30,47,28,16,98,64,36,29.88,29.78,7,1,10,0.00
2013-11-24,29,24,20,17,6,-4,68,47,27,30.17,29.79,8,2,15,0.00
2013-11-25,33,27,16,19,7,-4,63,43,23,30.36,30.19,6,1,9,0.00
2013-11-26,41,36,30,40,25,18,97,66,44,30.31,30.01,6,0,6,0.00
2013-11-27,62,52,36,60,50,33,98,96,88,30.01,29.20,7,2,20,0.00
2013-11-28,37,30,23,33,18,8,89,63,40,30.42,29.45,6,1,14,0.26
2013-11-29,35,27,21,18,14,4,76,58,37,30.72,30.42,3,0,7,0.00
2013-11-30,34,25,16,25,15,8,80,68,48,30.78,30.42,2,0,5,0.00
2013-12-1,44,37,31,43,35,25,98,92,80,30.42,29.98,0,0,4,0.37
2013-12-2,39,37,36,39,36,35,98,98,97,29.99,29.90,1,0,2,0.09
2013-12-3,46,38,34,39,35,32,98,91,68,29.93,29.83,1,0,6,0.04
2013-12-4,44,35,29,34,30,27,95,84,57,30.18,29.93,2,0,6,0.06
2013-12-5,54,44,30,54,42,28,99,95,84,30.19,29.90,4,0,11,0.02
2013-12-6,56,49,36,55,47,35,99,94,85,30.11,29.84,4,0,8,0.03
2013-12-7,40,33,27,35,29,23,97,86,60,30.43,30.05,2,0,8,0.03
2013-12-8,30,28,21,23,19,15,88,69,55,30.58,30.43,0,0,0,0.00
2013-12-9,37,33,27,37,31,19,98,95,65,30.48,29.87,2,0,4,0.20
2013-12-10,34,30,24,33,29,20,98,95,86,29.99,29.76,2,0,3,0.01
2013-12-11,30,25,22,22,20,18,91,81,70,30.22,29.99,4,0,7,0.00
2013-12-12,25,19,11,19,11,4,91,70,42,30.26,30.07,4,0,8,0.00
2013-12-13,30,22,11,18,12,7,83,66,52,30.36,29.99,4,1,12,0.00
2013-12-14,28,17,12,27,9,-3,96,72,50,30.58,30.11,1,0,4,0.00
2013-12-15,37,29,23,36,27,21,98,93,84,30.11,29.38,3,1,8,0.01
2013-12-16,28,24,12,22,14,8,89,68,45,30.20,29.74,6,1,12,0.00
2013-12-17,21,14,5,19,11,3,93,88,77,30.27,29.92,1,0,4,0.00
2013-12-18,35,25,17,24,20,14,92,81,59,30.08,29.84,3,1,8,0.00
2013-12-19,44,33,26,29,25,21,89,72,50,30.11,29.94,5,1,10,0.02
2013-12-20,53,40,30,39,33,28,92,78,56,30.11,29.91,4,1,8,0.82
2013-12-21,56,48,41,49,44,36,96,88,76,29.96,29.86,5,2,11,0.23
2013-12-22,64,49,37,61,47,36,99,94,73,30.00,29.75,6,1,13,0.05
2013-12-23,38,35,33,37,35,33,99,98,97,30.07,29.92,1,0,4,0.41
2013-12-24,38,32,28,37,24,18,98,73,51,30.18,30.02,2,0,8,0.00
2013-12-25,28,19,14,20,7,3,80,59,43,30.53,30.18,5,0,8,0.00
2013-12-26,35,26,15,33,22,10,95,86,73,30.49,30.07,3,0,6,0.00
2013-12-27,34,28,24,24,21,19,88,77,57,30.27,30.18,3,1,7,0.00
2013-12-28,47,32,20,31,25,18,93,78,47,30.22,29.99,3,1,9,0.01
2013-12-29,41,36,27,41,33,25,98,91,76,30.03,29.36,2,0,8,0.95
2013-12-30,41,33,20,36,26,10,97,76,46,30.13,29.50,6,1,10,0.00
2013-12-31,26,20,15,16,8,-1,78,61,48,30.18,30.01,3,0,6,0.00
2014-1-1,28,21,14,15,10,6,81,62,44,30.36,30.18,3,1,9,0.00
2014-1-2,25,16,3,24,13,0,96,89,70,30.34,29.79,4,0,8,0.00